Time;durP1;ratioP1;P1;durP2;ratioP2;P2;SDS_P1;SDS_P2;PMS_P1;PMS_P2;Temp;Humidity;BMP_temperature;BMP_pressure;BME280_temperature;BME280_humidity;BME280_pressure;Samples;Min_cycle;Max_cycle;Signal;HPM_P1;HPM_P2
2021/10/13 00:00:22;;;;;;;2.95;0.80;;;19.30;55.00;;;;;;5119649;28;20543;-56
2021/10/13 00:02:48;;;;;;;3.47;1.13;;;19.30;55.00;;;;;;5119520;28;20068;-59
2021/10/13 00:05:13;;;;;;;3.42;1.25;;;19.30;54.90;;;;;;5101112;28;20026;-55
2021/10/13 00:07:39;;;;;;;2.65;1.00;;;19.30;55.10;;;;;;5119709;28;20038;-56
2021/10/13 00:10:05;;;;;;;3.55;1.00;;;19.30;55.00;;;;;;5119405;28;20423;-55
2021/10/13 00:12:34;;;;;;;3.58;0.90;;;19.20;55.10;;;;;;5119315;28;20031;-55
2021/10/13 00:15:05;;;;;;;3.65;1.42;;;19.20;54.90;;;;;;5096825;28;20031;-58
2021/10/13 00:17:31;;;;;;;4.00;1.10;;;19.20;55.00;;;;;;5115910;28;20164;-54
2021/10/13 00:19:57;;;;;;;2.45;1.00;;;19.20;55.00;;;;;;5116117;28;20099;-52
2021/10/13 00:22:23;;;;;;;4.30;1.10;;;19.20;55.00;;;;;;5116301;28;20039;-52
2021/10/13 00:24:48;;;;;;;2.90;0.73;;;19.30;55.10;;;;;;5115935;28;20484;-54
2021/10/13 00:27:14;;;;;;;2.40;0.90;;;19.20;54.90;;;;;;5116208;28;20030;-56
2021/10/13 00:29:39;;;;;;;2.42;0.90;;;19.20;55.00;;;;;;5115895;28;20494;-57
2021/10/13 00:32:05;;;;;;;2.38;1.00;;;19.20;54.90;;;;;;5115786;28;20467;-56
2021/10/13 00:34:32;;;;;;;2.40;0.85;;;19.20;54.90;;;;;;5097506;28;20040;-53
2021/10/13 00:36:58;;;;;;;2.97;0.90;;;19.20;55.00;;;;;;5115651;28;20042;-57
2021/10/13 00:39:24;;;;;;;2.28;0.85;;;19.20;54.90;;;;;;5115654;28;20077;-58
2021/10/13 00:41:50;;;;;;;2.85;1.08;;;19.20;55.00;;;;;;5115709;28;20504;-53
2021/10/13 00:44:16;;;;;;;3.47;1.27;;;19.20;55.00;;;;;;5115701;28;20016;-52
2021/10/13 00:46:41;;;;;;;3.08;0.60;;;19.20;55.00;;;;;;5115499;28;20106;-54
2021/10/13 00:49:07;;;;;;;3.25;1.00;;;19.20;54.90;;;;;;5115597;28;20099;-55
2021/10/13 00:51:34;;;;;;;4.15;1.08;;;19.20;54.90;;;;;;5115513;28;20019;-53
2021/10/13 00:54:00;;;;;;;5.15;1.83;;;19.20;54.90;;;;;;5115478;28;20019;-55
2021/10/13 00:56:26;;;;;;;2.50;0.93;;;19.20;55.00;;;;;;5115308;28;20058;-52
2021/10/13 00:58:53;;;;;;;2.67;0.70;;;19.20;54.90;;;;;;5115342;28;20023;-55
2021/10/13 01:01:28;;;;;;;3.90;1.20;;;19.20;54.90;;;;;;5115230;28;20028;-54
2021/10/13 01:04:12;;;;;;;3.05;1.08;;;19.10;54.90;;;;;;5115304;28;20018;-54
2021/10/13 01:06:55;;;;;;;3.88;1.13;;;19.20;54.90;;;;;;5115342;28;20047;-56
2021/10/13 01:09:26;;;;;;;2.67;1.08;;;19.10;54.80;;;;;;5115429;28;20031;-54
2021/10/13 01:12:14;;;;;;;3.65;0.93;;;19.20;54.90;;;;;;5115090;28;20103;-55
2021/10/13 01:14:49;;;;;;;2.00;0.98;;;19.20;54.80;;;;;;5115201;28;20024;-58
2021/10/13 01:17:28;;;;;;;4.68;1.35;;;19.10;54.80;;;;;;5114974;28;20080;-56
2021/10/13 01:20:05;;;;;;;5.40;1.33;;;19.10;54.90;;;;;;5114998;28;20019;-56
2021/10/13 01:23:08;;;;;;;2.67;0.90;;;19.10;54.80;;;;;;5115057;28;20031;-54
2021/10/13 01:26:04;;;;;;;4.25;1.50;;;19.20;54.80;;;;;;5114466;28;20030;-56
2021/10/13 01:28:34;;;;;;;4.35;1.35;;;19.20;54.80;;;;;;5115024;28;20061;-55
2021/10/13 01:31:23;;;;;;;2.58;1.10;;;19.10;54.80;;;;;;5096324;28;20034;-55
2021/10/13 01:33:59;;;;;;;3.28;1.40;;;19.10;54.70;;;;;;5114673;28;20031;-54
2021/10/13 01:36:34;;;;;;;4.40;1.40;;;19.10;54.70;;;;;;5114590;28;20032;-51
2021/10/13 01:39:01;;;;;;;;;;;19.10;54.80;;;;;;5114825;28;20040;-54
2021/10/13 01:41:28;;;;;;;3.83;1.50;;;19.10;54.70;;;;;;5114577;28;19904;-52
2021/10/13 01:43:56;;;;;;;3.40;1.02;;;19.10;54.70;;;;;;5114457;28;20016;-57
2021/10/13 01:46:23;;;;;;;3.00;1.20;;;19.10;54.70;;;;;;5114456;28;20031;-55
2021/10/13 01:48:51;;;;;;;3.22;1.20;;;19.10;54.60;;;;;;5114586;28;20114;-58
2021/10/13 01:51:17;;;;;;;3.78;1.20;;;19.10;54.70;;;;;;5114316;28;20023;-57
2021/10/13 01:53:44;;;;;;;4.18;1.38;;;19.10;54.70;;;;;;5114501;28;20027;-51
2021/10/13 01:56:13;;;;;;;3.70;1.00;;;19.10;54.40;;;;;;5114118;28;20027;-54
2021/10/13 01:58:40;;;;;;;2.20;1.13;;;19.10;54.50;;;;;;5114447;28;20082;-54
2021/10/13 02:01:10;;;;;;;4.72;1.35;;;19.10;54.30;;;;;;5114098;28;20106;-54
2021/10/13 02:03:38;;;;;;;4.32;1.40;;;19.10;54.50;;;;;;5114478;28;20073;-54
2021/10/13 02:06:05;;;;;;;3.10;1.10;;;19.10;54.50;;;;;;5114015;28;20027;-53
2021/10/13 02:08:34;;;;;;;3.15;1.30;;;19.10;54.30;;;;;;5114129;28;20385;-55
2021/10/13 02:11:03;;;;;;;3.80;1.40;;;19.10;54.30;;;;;;5113978;28;20023;-55
2021/10/13 02:13:34;;;;;;;4.45;1.50;;;19.00;54.30;;;;;;5114141;28;20066;-56
2021/10/13 02:16:02;;;;;;;4.95;1.50;;;19.10;54.30;;;;;;5113875;28;20036;-54
2021/10/13 02:18:29;;;;;;;3.40;1.42;;;19.10;54.30;;;;;;5113778;28;20481;-56
2021/10/13 02:20:56;;;;;;;3.35;1.45;;;19.10;54.30;;;;;;5113819;28;20485;-55
2021/10/13 02:23:28;;;;;;;4.97;1.55;;;19.10;54.20;;;;;;5113772;28;20099;-55
2021/10/13 02:25:55;;;;;;;3.92;1.48;;;19.10;54.20;;;;;;5113739;28;20053;-54
2021/10/13 02:28:43;;;;;;;4.43;1.40;;;19.00;54.20;;;;;;5113661;28;20023;-55
2021/10/13 02:31:09;;;;;;;3.33;1.30;;;19.10;54.40;;;;;;5096054;28;20100;-57
2021/10/13 02:33:36;;;;;;;4.00;1.52;;;19.10;54.40;;;;;;5113850;28;20028;-53
2021/10/13 02:36:03;;;;;;;5.05;1.88;;;19.00;54.30;;;;;;5113206;28;20390;-54
2021/10/13 02:38:29;;;;;;;3.78;1.38;;;19.10;54.30;;;;;;5113234;28;20088;-51
2021/10/13 02:40:55;;;;;;;3.75;1.42;;;19.00;54.30;;;;;;5113314;28;20444;-53
2021/10/13 02:43:20;;;;;;;7.93;2.15;;;19.00;54.50;;;;;;5113950;28;20073;-53
2021/10/13 02:46:02;;;;;;;4.32;1.77;;;19.00;54.40;;;;;;5113613;28;20065;-54
2021/10/13 02:48:31;;;;;;;4.70;1.48;;;19.00;54.30;;;;;;5113566;28;20031;-55
2021/10/13 02:51:13;;;;;;;3.55;1.25;;;19.00;54.40;;;;;;5113592;28;20016;-51
2021/10/13 02:53:40;;;;;;;4.90;1.58;;;19.00;54.40;;;;;;5113646;28;20036;-53
2021/10/13 02:56:22;;;;;;;6.07;1.70;;;19.00;54.40;;;;;;5113148;28;20465;-50
2021/10/13 02:59:11;;;;;;;6.05;1.88;;;19.00;54.40;;;;;;5113451;28;20417;-54
2021/10/13 03:01:40;;;;;;;5.50;1.58;;;19.00;54.40;;;;;;5095104;28;20031;-55
2021/10/13 03:04:17;;;;;;;4.28;1.48;;;19.00;54.40;;;;;;5113196;28;20019;-54
2021/10/13 03:06:55;;;;;;;5.18;2.00;;;19.00;54.30;;;;;;5113544;28;20054;-53
2021/10/13 03:09:22;;;;;;;5.30;1.70;;;19.00;54.40;;;;;;5113158;28;20024;-50
2021/10/13 03:11:52;;;;;;;4.00;1.75;;;19.00;54.30;;;;;;5113137;28;20028;-55
2021/10/13 03:14:25;;;;;;;4.65;1.80;;;19.00;54.30;;;;;;5113203;28;20051;-56
2021/10/13 03:16:53;;;;;;;3.90;1.60;;;19.00;54.20;;;;;;5112974;28;20526;-55
2021/10/13 03:19:21;;;;;;;4.63;1.75;;;19.00;54.10;;;;;;5113034;28;20494;-53
2021/10/13 03:21:49;;;;;;;4.78;1.95;;;19.00;54.10;;;;;;5094795;28;20058;-56
2021/10/13 03:24:18;;;;;;;4.32;1.60;;;19.00;54.20;;;;;;5112979;28;20532;-54
2021/10/13 03:26:50;;;;;;;4.03;1.85;;;19.00;54.10;;;;;;5112995;28;20421;-55
2021/10/13 03:29:16;;;;;;;3.45;1.55;;;19.00;54.10;;;;;;5112941;28;20020;-53
2021/10/13 03:31:43;;;;;;;5.07;2.10;;;19.00;54.00;;;;;;5112892;28;20032;-57
2021/10/13 03:34:09;;;;;;;5.50;1.85;;;18.90;53.90;;;;;;5112912;28;20368;-57
2021/10/13 03:36:52;;;;;;;4.53;1.88;;;19.00;54.20;;;;;;5112803;28;20036;-54
2021/10/13 03:39:18;;;;;;;4.63;1.92;;;19.00;54.10;;;;;;5112796;28;20062;-55
2021/10/13 03:41:44;;;;;;;4.68;1.52;;;19.00;54.00;;;;;;5112833;28;20023;-52
2021/10/13 03:44:10;;;;;;;4.43;1.88;;;19.00;54.20;;;;;;5112833;28;20031;-54
2021/10/13 03:46:39;;;;;;;4.72;1.88;;;19.00;54.00;;;;;;5112788;28;20030;-52
2021/10/13 03:49:06;;;;;;;4.03;1.70;;;19.00;53.90;;;;;;5115571;28;20023;-53
2021/10/13 03:51:32;;;;;;;4.25;1.90;;;18.90;54.00;;;;;;5117013;28;20020;-53
2021/10/13 03:53:57;;;;;;;4.68;1.70;;;19.00;54.00;;;;;;5116589;28;20047;-56
2021/10/13 03:56:23;;;;;;;4.15;1.75;;;18.90;54.00;;;;;;5116685;28;20108;-56
2021/10/13 03:58:49;;;;;;;4.68;2.00;;;19.00;54.00;;;;;;5116519;28;20019;-56
2021/10/13 04:01:15;;;;;;;4.65;1.90;;;18.90;53.90;;;;;;5116461;28;20081;-54
2021/10/13 04:03:41;;;;;;;4.45;1.85;;;18.90;54.00;;;;;;5116559;28;20023;-56
2021/10/13 04:06:09;;;;;;;4.60;1.98;;;18.90;53.90;;;;;;5116405;28;20080;-52
2021/10/13 04:08:35;;;;;;;4.80;2.00;;;18.90;54.00;;;;;;5116602;28;20027;-57
2021/10/13 04:11:01;;;;;;;5.78;2.08;;;18.90;53.90;;;;;;5116263;28;20082;-54
2021/10/13 04:13:26;;;;;;;4.20;2.10;;;18.90;53.80;;;;;;5116411;28;20463;-53
2021/10/13 04:15:53;;;;;;;4.88;2.22;;;18.90;53.80;;;;;;5116203;28;20074;-54
2021/10/13 04:18:18;;;;;;;4.25;1.88;;;19.00;53.50;;;;;;5116459;28;20032;-53
2021/10/13 04:20:44;;;;;;;4.38;1.90;;;19.00;53.50;;;;;;5116194;28;20073;-54
2021/10/13 04:23:09;;;;;;;4.20;1.88;;;18.90;53.40;;;;;;5116060;28;20028;-53
2021/10/13 04:25:35;;;;;;;4.93;2.22;;;18.90;53.50;;;;;;5116000;28;20026;-54
2021/10/13 04:28:00;;;;;;;5.45;1.85;;;19.00;53.40;;;;;;5115982;28;20118;-54
2021/10/13 04:30:26;;;;;;;4.40;1.98;;;19.00;53.40;;;;;;5115945;28;20027;-55
2021/10/13 04:32:52;;;;;;;3.55;1.60;;;19.00;53.30;;;;;;5115957;28;20027;-51
2021/10/13 04:35:17;;;;;;;7.70;2.58;;;19.00;53.30;;;;;;5115814;28;20077;-54
2021/10/13 04:37:43;;;;;;;5.13;2.00;;;19.00;53.50;;;;;;5115864;28;20038;-55
2021/10/13 04:40:09;;;;;;;5.25;2.08;;;19.00;53.40;;;;;;5115538;28;20056;-56
2021/10/13 04:42:34;;;;;;;5.38;2.00;;;19.00;53.40;;;;;;5115720;28;20032;-55
2021/10/13 04:45:00;;;;;;;4.75;1.80;;;19.00;53.30;;;;;;5115840;28;20019;-53
2021/10/13 04:47:26;;;;;;;4.75;1.88;;;19.00;53.30;;;;;;5115646;28;20015;-57
2021/10/13 04:49:52;;;;;;;5.60;2.20;;;19.00;53.40;;;;;;5115564;28;20035;-56
2021/10/13 04:52:17;;;;;;;4.38;1.90;;;19.00;53.30;;;;;;5115632;28;20024;-57
2021/10/13 04:54:43;;;;;;;5.22;2.25;;;19.00;53.30;;;;;;5115458;28;20031;-54
2021/10/13 04:57:09;;;;;;;6.10;2.40;;;19.00;53.20;;;;;;5115366;28;20043;-50
2021/10/13 04:59:35;;;;;;;4.95;2.10;;;19.00;53.20;;;;;;5114638;28;20026;-53
2021/10/13 05:02:01;;;;;;;4.85;2.08;;;19.00;53.40;;;;;;5115402;28;20111;-56
2021/10/13 05:04:26;;;;;;;4.40;1.70;;;19.00;53.40;;;;;;5115585;28;20513;-58
2021/10/13 05:06:52;;;;;;;5.40;1.80;;;19.00;53.20;;;;;;5115205;28;20073;-56
2021/10/13 05:09:17;;;;;;;4.78;1.95;;;19.00;53.30;;;;;;5115074;28;20073;-55
2021/10/13 05:11:43;;;;;;;5.82;2.00;;;19.00;53.20;;;;;;5115203;28;20024;-56
2021/10/13 05:14:09;;;;;;;5.57;2.15;;;19.00;53.10;;;;;;5096819;28;20463;-55
2021/10/13 05:16:36;;;;;;;5.50;2.10;;;19.00;53.20;;;;;;5114970;28;20502;-57
2021/10/13 05:19:02;;;;;;;5.55;2.33;;;19.00;53.20;;;;;;5115018;28;20024;-54
2021/10/13 05:21:28;;;;;;;5.20;1.92;;;19.00;53.20;;;;;;5114980;28;20027;-53
2021/10/13 05:23:53;;;;;;;5.22;1.90;;;19.00;53.10;;;;;;5114877;28;20027;-54
2021/10/13 05:26:19;;;;;;;4.72;2.08;;;19.00;53.20;;;;;;5114946;28;20023;-52
2021/10/13 05:28:45;;;;;;;4.80;1.80;;;19.00;53.30;;;;;;5114776;28;20020;-58
2021/10/13 05:31:10;;;;;;;4.20;1.98;;;19.00;53.10;;;;;;5114817;28;20103;-57
2021/10/13 05:33:36;;;;;;;3.78;1.80;;;19.00;53.10;;;;;;5114705;28;20105;-55
2021/10/13 05:36:01;;;;;;;4.32;1.95;;;19.00;53.20;;;;;;5114414;28;20059;-57
2021/10/13 05:38:27;;;;;;;4.55;1.88;;;19.00;53.20;;;;;;5114828;28;20051;-55
2021/10/13 05:40:52;;;;;;;5.28;2.15;;;19.00;53.20;;;;;;5095984;28;20463;-54
2021/10/13 05:43:18;;;;;;;4.35;2.00;;;19.00;53.20;;;;;;5114467;28;20077;-54
2021/10/13 05:45:44;;;;;;;5.13;2.38;;;19.00;53.20;;;;;;5114242;28;20037;-55
2021/10/13 05:48:09;;;;;;;5.57;2.00;;;19.00;53.30;;;;;;5114334;28;20115;-55
2021/10/13 05:50:35;;;;;;;6.18;2.10;;;19.00;53.20;;;;;;5114568;28;20022;-56
2021/10/13 05:53:00;;;;;;;5.07;2.15;;;19.00;53.20;;;;;;5114159;28;20474;-53
2021/10/13 05:55:26;;;;;;;3.97;1.70;;;19.00;53.10;;;;;;5114161;28;20102;-55
2021/10/13 05:57:51;;;;;;;5.43;1.77;;;19.00;53.20;;;;;;5114138;28;20029;-58
2021/10/13 06:00:18;;;;;;;4.85;2.00;;;19.00;53.20;;;;;;5114163;28;20027;-56
2021/10/13 06:02:44;;;;;;;4.72;1.98;;;19.00;53.20;;;;;;5114294;28;20457;-56
2021/10/13 06:05:10;;;;;;;4.05;1.70;;;19.00;53.30;;;;;;5114051;28;20103;-57
2021/10/13 06:07:36;;;;;;;4.75;1.88;;;19.00;53.20;;;;;;5113843;28;20083;-57
2021/10/13 06:10:02;;;;;;;4.28;2.05;;;19.00;53.10;;;;;;5095726;28;20046;-57
2021/10/13 06:12:30;;;;;;;6.15;2.40;;;19.00;53.10;;;;;;5113570;28;20076;-56
2021/10/13 06:14:56;;;;;;;4.07;1.80;;;19.00;53.10;;;;;;5122248;27;20031;-57
2021/10/13 06:17:21;;;;;;;4.38;1.90;;;19.00;53.30;;;;;;5123936;27;20397;-57
2021/10/13 06:19:47;;;;;;;5.38;1.98;;;19.00;53.30;;;;;;5101806;27;20043;-55
2021/10/13 06:22:13;;;;;;;5.43;2.08;;;19.00;52.50;;;;;;5113952;27;20035;-59
2021/10/13 06:24:39;;;;;;;5.00;2.08;;;19.00;53.20;;;;;;5104495;27;20034;-54
2021/10/13 06:27:05;;;;;;;5.90;1.77;;;19.10;53.30;;;;;;5129864;27;20027;-53
2021/10/13 06:29:32;;;;;;;4.20;1.88;;;19.10;53.30;;;;;;5115581;27;20035;-49
2021/10/13 06:31:58;;;;;;;7.00;2.40;;;19.10;53.20;;;;;;5112930;27;20399;-54
2021/10/13 06:34:23;;;;;;;4.45;1.88;;;19.10;53.20;;;;;;5114207;27;20038;-50
2021/10/13 06:36:49;;;;;;;5.10;1.70;;;19.10;53.10;;;;;;5116182;27;20036;-57
2021/10/13 06:39:15;;;;;;;5.30;1.80;;;19.10;53.10;;;;;;5132912;27;20044;-53
2021/10/13 06:41:41;;;;;;;4.63;2.10;;;19.10;53.10;;;;;;5130926;27;20442;-54
2021/10/13 06:44:06;;;;;;;4.28;1.85;;;19.20;53.10;;;;;;5117432;27;20031;-54
2021/10/13 06:46:32;;;;;;;4.32;1.80;;;19.20;53.20;;;;;;5115877;27;20027;-55
2021/10/13 06:48:57;;;;;;;4.40;1.80;;;19.20;53.20;;;;;;5121984;27;20474;-55
2021/10/13 06:51:23;;;;;;;4.70;1.85;;;19.20;53.20;;;;;;5116196;27;20472;-52
2021/10/13 06:53:49;;;;;;;3.78;1.55;;;19.20;53.20;;;;;;5116184;27;20580;-55
2021/10/13 06:56:15;;;;;;;3.80;1.65;;;19.20;53.20;;;;;;5129486;27;20486;-52
2021/10/13 06:58:41;;;;;;;5.00;1.75;;;19.20;53.30;;;;;;5119533;27;20092;-53
2021/10/13 07:01:06;;;;;;;4.55;1.80;;;19.20;53.30;;;;;;5115526;28;20340;-54
2021/10/13 07:03:32;;;;;;;5.75;2.05;;;19.20;53.20;;;;;;5106090;28;20223;-56
2021/10/13 07:05:57;;;;;;;5.05;1.90;;;19.20;53.30;;;;;;5117794;28;20115;-56
2021/10/13 07:08:23;;;;;;;4.43;1.70;;;19.20;53.30;;;;;;5121886;28;20597;-53
2021/10/13 07:10:48;;;;;;;6.05;2.00;;;19.20;53.30;;;;;;5122650;28;20032;-54
2021/10/13 07:13:14;;;;;;;7.00;2.22;;;19.30;53.30;;;;;;5103465;28;20039;-54
2021/10/13 07:15:40;;;;;;;3.78;1.60;;;19.30;53.40;;;;;;5126699;28;20027;-56
2021/10/13 07:18:05;;;;;;;3.65;1.70;;;19.30;53.40;;;;;;5108944;28;20035;-55
2021/10/13 07:20:31;;;;;;;4.25;1.65;;;19.30;53.40;;;;;;5117882;28;20020;-54
2021/10/13 07:22:57;;;;;;;4.90;2.00;;;19.30;53.40;;;;;;5107252;27;20028;-56
2021/10/13 07:25:25;;;;;;;4.28;1.70;;;19.30;53.40;;;;;;5098840;27;20020;-56
2021/10/13 07:27:51;;;;;;;5.43;1.80;;;19.30;53.50;;;;;;5118723;27;20076;-57
2021/10/13 07:30:22;;;;;;;4.88;1.67;;;19.30;53.50;;;;;;5104629;27;20109;-58
2021/10/13 07:32:47;;;;;;;4.30;1.63;;;19.40;53.50;;;;;;5117232;27;20024;-57
2021/10/13 07:35:13;;;;;;;4.57;1.70;;;19.40;53.40;;;;;;5105935;27;20069;-57
2021/10/13 07:37:39;;;;;;;4.43;1.88;;;19.40;53.50;;;;;;5121525;27;20046;-57
2021/10/13 07:40:05;;;;;;;5.03;1.90;;;19.40;53.50;;;;;;5121696;27;20052;-55
2021/10/13 07:42:32;;;;;;;6.47;2.75;;;19.40;53.60;;;;;;5123802;27;20027;-56
2021/10/13 07:44:57;;;;;;;9.38;2.42;;;19.00;52.00;;;;;;5120662;27;20024;-51
2021/10/13 07:47:23;;;;;;;6.78;2.50;;;18.90;52.90;;;;;;5123639;27;20026;-57
2021/10/13 07:49:49;;;;;;;7.75;2.95;;;19.00;53.10;;;;;;5117547;27;20482;-54
2021/10/13 07:52:15;;;;;;;7.47;2.15;;;19.10;53.30;;;;;;5123512;27;20031;-55
2021/10/13 07:54:41;;;;;;;5.43;1.70;;;19.20;53.20;;;;;;5126522;27;20530;-55
2021/10/13 07:57:06;;;;;;;4.88;1.80;;;19.30;53.30;;;;;;5124094;27;20043;-58
2021/10/13 07:59:32;;;;;;;4.32;1.67;;;19.30;53.40;;;;;;5118949;27;20031;-57
2021/10/13 08:01:57;;;;;;;5.55;1.75;;;19.30;53.40;;;;;;5115151;27;20027;-55
2021/10/13 08:04:23;;;;;;;5.40;1.95;;;19.40;53.30;;;;;;5120282;27;20388;-57
2021/10/13 08:06:49;;;;;;;4.18;1.80;;;19.40;53.40;;;;;;5120700;27;20398;-54
2021/10/13 08:09:14;;;;;;;4.22;1.70;;;19.40;53.40;;;;;;5127665;27;20490;-54
2021/10/13 08:11:40;;;;;;;8.05;2.50;;;19.40;53.50;;;;;;5125847;27;20027;-51
2021/10/13 08:14:05;;;;;;;4.57;1.80;;;19.40;53.50;;;;;;5115247;28;20030;-57
2021/10/13 08:16:32;;;;;;;5.00;2.10;;;19.40;53.50;;;;;;5124782;27;20039;-55
2021/10/13 08:18:57;;;;;;;4.80;1.73;;;19.50;53.50;;;;;;5130420;27;20034;-57
2021/10/13 08:21:23;;;;;;;4.53;1.67;;;19.50;53.50;;;;;;5123348;27;20395;-53
2021/10/13 08:23:48;;;;;;;3.72;1.63;;;19.40;53.40;;;;;;5115808;27;20054;-58
2021/10/13 08:26:14;;;;;;;5.03;1.65;;;19.50;53.40;;;;;;5120355;27;20027;-56
2021/10/13 08:28:39;;;;;;;4.97;1.60;;;19.50;53.50;;;;;;5123530;27;20028;-53
2021/10/13 08:31:05;;;;;;;4.05;1.50;;;19.50;53.40;;;;;;5129954;27;20098;-54
2021/10/13 08:33:31;;;;;;;5.78;1.83;;;19.50;53.50;;;;;;5131409;27;20035;-57
2021/10/13 08:35:57;;;;;;;4.88;1.83;;;19.50;53.40;;;;;;5130343;27;20562;-54
2021/10/13 08:38:22;;;;;;;4.20;1.88;;;19.50;53.40;;;;;;5104061;27;20031;-58
2021/10/13 08:40:48;;;;;;;6.38;1.80;;;19.50;53.50;;;;;;5117443;27;20422;-57
2021/10/13 08:43:13;;;;;;;4.97;1.83;;;19.50;53.50;;;;;;5114665;28;20031;-55
2021/10/13 08:45:39;;;;;;;6.88;1.80;;;19.50;53.50;;;;;;5118468;27;20119;-55
2021/10/13 08:48:06;;;;;;;4.07;1.52;;;19.50;53.50;;;;;;5114296;27;20118;-54
2021/10/13 08:50:37;;;;;;;4.43;1.85;;;19.50;53.40;;;;;;5115072;27;20032;-58
2021/10/13 08:53:08;;;;;;;5.40;1.95;;;19.60;53.40;;;;;;5122104;27;20029;-52
2021/10/13 08:55:35;;;;;;;6.57;2.00;;;19.60;53.40;;;;;;5130171;27;20031;-57
2021/10/13 08:58:11;;;;;;;5.90;2.22;;;19.60;53.40;;;;;;5114424;27;20121;-58
2021/10/13 09:00:37;;;;;;;4.32;1.80;;;19.60;53.40;;;;;;5132049;27;20031;-57
2021/10/13 09:03:02;;;;;;;4.22;1.50;;;19.60;53.40;;;;;;5115806;27;20033;-58
2021/10/13 09:05:28;;;;;;;4.53;1.65;;;19.60;53.40;;;;;;5113811;27;20027;-58
2021/10/13 09:07:56;;;;;;;3.60;1.40;;;19.60;53.40;;;;;;5114074;28;20027;-57
2021/10/13 09:10:36;;;;;;;7.93;3.47;;;19.70;53.40;;;;;;5125681;27;20031;-60
2021/10/13 09:13:17;;;;;;;8.05;3.28;;;19.00;52.60;;;;;;5127231;27;20072;-56
2021/10/13 09:15:48;;;;;;;11.13;3.05;;;18.70;53.10;;;;;;5116154;27;20032;-58
2021/10/13 09:18:14;;;;;;;9.10;2.92;;;18.90;53.60;;;;;;5102167;28;20126;-55
2021/10/13 09:20:41;;;;;;;7.38;2.40;;;19.10;53.20;;;;;;5124480;27;20011;-59
2021/10/13 09:23:18;;;;;;;6.47;2.10;;;19.20;53.10;;;;;;5124360;27;20034;-55
2021/10/13 09:26:01;;;;;;;4.63;1.73;;;19.40;53.10;;;;;;5116458;27;20038;-57
2021/10/13 09:28:27;;;;;;;4.88;2.00;;;19.40;53.20;;;;;;5133432;27;20029;-55
2021/10/13 09:30:53;;;;;;;8.57;3.00;;;19.50;53.20;;;;;;5116290;27;20103;-55
2021/10/13 09:33:20;;;;;;;4.05;1.75;;;19.50;53.30;;;;;;5113636;28;20604;-55
2021/10/13 09:35:47;;;;;;;6.05;1.67;;;19.50;53.20;;;;;;5123439;27;20073;-58
2021/10/13 09:38:21;;;;;;;7.00;2.20;;;19.50;53.30;;;;;;5123153;27;20501;-55
2021/10/13 09:40:49;;;;;;;4.50;1.77;;;19.60;53.20;;;;;;5116849;27;20054;-56
2021/10/13 09:43:31;;;;;;;5.47;1.83;;;19.60;53.10;;;;;;5129933;27;20027;-55
2021/10/13 09:46:02;;;;;;;4.90;1.73;;;19.70;53.10;;;;;;5118921;27;20035;-53
2021/10/13 09:48:27;;;;;;;5.18;1.67;;;19.70;53.00;;;;;;5113385;28;20035;-56
2021/10/13 09:50:53;;;;;;;4.68;1.70;;;19.70;53.00;;;;;;5114403;27;20023;-55
2021/10/13 09:53:26;;;;;;;6.20;1.60;;;19.70;53.00;;;;;;5118349;27;20114;-58
2021/10/13 09:55:52;;;;;;;5.18;1.90;;;19.80;53.00;;;;;;5112748;27;20118;-59
2021/10/13 09:58:34;;;;;;;3.95;1.42;;;19.80;52.90;;;;;;5094980;28;20055;-56
2021/10/13 10:01:08;;;;;;;6.25;2.42;;;19.90;52.90;;;;;;5114757;27;20031;-59
2021/10/13 10:03:36;;;;;;;4.25;1.60;;;19.90;52.90;;;;;;5113399;27;20024;-58
2021/10/13 10:06:02;;;;;;;3.97;1.58;;;19.90;52.80;;;;;;5117317;27;20032;-60
2021/10/13 10:08:28;;;;;;;4.45;1.75;;;20.00;52.80;;;;;;5131228;27;20031;-56
2021/10/13 10:11:07;;;;;;;4.80;1.70;;;20.00;52.80;;;;;;5118352;27;20031;-57
2021/10/13 10:13:41;;;;;;;4.63;1.65;;;20.00;52.80;;;;;;5096030;28;20063;-53
2021/10/13 10:16:09;;;;;;;6.50;1.90;;;20.00;52.70;;;;;;5113290;27;20131;-59
2021/10/13 10:18:37;;;;;;;4.10;1.40;;;20.10;52.70;;;;;;5120675;27;20031;-54
2021/10/13 10:21:22;;;;;;;7.13;1.70;;;20.10;52.60;;;;;;5130324;27;20578;-56
2021/10/13 10:23:56;;;;;;;4.38;1.40;;;20.20;52.60;;;;;;5112485;28;20024;-56
2021/10/13 10:26:24;;;;;;;3.78;1.58;;;20.20;52.50;;;;;;5122384;27;20023;-55
2021/10/13 10:28:51;;;;;;;4.85;1.63;;;20.20;52.50;;;;;;5117561;27;20023;-56
2021/10/13 10:31:28;;;;;;;4.28;1.52;;;20.30;52.50;;;;;;5116979;27;20028;-56
2021/10/13 10:34:03;;;;;;;6.03;1.65;;;20.30;52.50;;;;;;5113494;27;20035;-58
2021/10/13 10:36:35;;;;;;;4.13;1.60;;;20.40;52.50;;;;;;5132212;27;20045;-59
2021/10/13 10:39:03;;;;;;;5.50;1.63;;;20.40;52.40;;;;;;5112257;28;20227;-56
2021/10/13 10:41:55;;;;;;;5.82;1.95;;;20.50;52.30;;;;;;5118099;27;20023;-56
2021/10/13 10:44:44;;;;;;;7.65;1.60;;;20.50;52.30;;;;;;5120136;27;20039;-56
2021/10/13 10:47:15;;;;;;;4.03;1.52;;;20.50;52.40;;;;;;5101925;27;20399;-55
2021/10/13 10:49:46;;;;;;;5.30;1.60;;;20.50;52.10;;;;;;5115068;27;20090;-54
2021/10/13 10:52:23;;;;;;;5.25;2.35;;;20.60;52.10;;;;;;5123270;27;20034;-57
2021/10/13 10:55:05;;;;;;;4.63;1.90;;;20.60;52.20;;;;;;5112703;27;20027;-56
2021/10/13 10:57:44;;;;;;;5.35;1.65;;;20.50;52.40;;;;;;5082937;28;20042;-54
2021/10/13 11:00:30;;;;;;;5.07;1.50;;;20.70;52.20;;;;;;5115852;28;20035;-58
2021/10/13 11:03:17;;;;;;;7.35;1.50;;;20.70;52.10;;;;;;5128354;28;20027;-56
2021/10/13 11:05:43;;;;;;;4.68;1.50;;;20.80;52.00;;;;;;5105372;28;20114;-58
2021/10/13 11:08:09;;;;;;;4.95;1.73;;;20.80;51.90;;;;;;5105724;28;20019;-60
2021/10/13 11:10:35;;;;;;;4.22;1.50;;;20.90;51.90;;;;;;5095823;28;20383;-58
2021/10/13 11:13:01;;;;;;;4.00;1.38;;;21.00;51.80;;;;;;5113045;28;20035;-55
2021/10/13 11:15:29;;;;;;;5.00;1.45;;;21.00;51.80;;;;;;5104475;28;20031;-53
2021/10/13 11:17:55;;;;;;;2.92;1.15;;;21.00;51.80;;;;;;5120374;28;20123;-51
2021/10/13 11:20:24;;;;;;;4.75;1.45;;;21.00;51.70;;;;;;5109852;28;20099;-55
2021/10/13 11:23:00;;;;;;;4.63;1.52;;;21.00;51.80;;;;;;5121946;28;20390;-56
2021/10/13 11:25:27;;;;;;;4.50;1.65;;;20.90;51.90;;;;;;5130138;28;20027;-57
2021/10/13 11:28:11;;;;;;;6.75;1.25;;;20.90;51.90;;;;;;5114276;28;20027;-55
2021/10/13 11:30:44;;;;;;;7.43;1.35;;;20.90;52.00;;;;;;5112632;28;20035;-57
2021/10/13 11:33:11;;;;;;;4.75;1.90;;;20.80;52.10;;;;;;5112626;28;20042;-58
2021/10/13 11:35:37;;;;;;;4.53;1.70;;;20.90;52.20;;;;;;5114278;28;20041;-54
2021/10/13 11:38:05;;;;;;;3.80;1.45;;;20.90;51.90;;;;;;5112678;28;20035;-58
2021/10/13 11:40:31;;;;;;;7.68;1.50;;;21.00;51.90;;;;;;5116438;28;20088;-57
2021/10/13 11:43:05;;;;;;;3.00;1.30;;;21.10;51.80;;;;;;5113429;28;20039;-58
2021/10/13 11:45:30;;;;;;;4.93;1.65;;;21.00;51.90;;;;;;5112614;28;20059;-56
2021/10/13 11:47:59;;;;;;;5.50;1.58;;;21.00;51.90;;;;;;5124898;28;20070;-59
2021/10/13 11:50:25;;;;;;;3.90;1.45;;;21.00;52.00;;;;;;5118091;28;20031;-58
2021/10/13 11:52:53;;;;;;;3.90;1.30;;;20.90;52.10;;;;;;5112787;28;20106;-60
2021/10/13 11:55:21;;;;;;;4.32;1.50;;;20.90;52.20;;;;;;5130418;28;20062;-59
2021/10/13 11:57:51;;;;;;;5.65;1.70;;;20.80;52.40;;;;;;5127228;28;20036;-59
2021/10/13 12:00:23;;;;;;;5.03;1.67;;;20.80;52.60;;;;;;5116102;28;20020;-58
2021/10/13 12:03:06;;;;;;;3.97;1.40;;;20.80;52.60;;;;;;5113180;28;20483;-59
2021/10/13 12:05:41;;;;;;;4.53;1.52;;;20.80;52.70;;;;;;5126329;28;20058;-57
2021/10/13 12:08:12;;;;;;;4.72;1.63;;;20.70;52.70;;;;;;5117210;28;20114;-58
2021/10/13 12:10:49;;;;;;;4.95;1.63;;;20.70;52.70;;;;;;5114810;27;20027;-57
2021/10/13 12:13:17;;;;;;;3.58;1.25;;;20.70;52.70;;;;;;5128634;27;20031;-58
2021/10/13 12:15:47;;;;;;;4.72;1.30;;;20.70;52.80;;;;;;5130874;27;20111;-59
2021/10/13 12:18:14;;;;;;;3.40;1.38;;;20.70;52.80;;;;;;5127050;27;20503;-58
2021/10/13 12:20:48;;;;;;;3.63;1.45;;;20.70;52.80;;;;;;5127338;27;20379;-60
2021/10/13 12:23:17;;;;;;;3.30;1.20;;;20.70;52.80;;;;;;5116821;27;20032;-57
2021/10/13 12:25:43;;;;;;;3.63;1.30;;;20.70;52.80;;;;;;5100627;28;20031;-59
2021/10/13 12:28:25;;;;;;;4.03;1.20;;;20.70;52.70;;;;;;5115063;28;20122;-59
2021/10/13 12:31:09;;;;;;;4.28;1.00;;;20.70;52.80;;;;;;5115992;27;20031;-58
2021/10/13 12:33:45;;;;;;;2.40;1.00;;;20.70;52.90;;;;;;5130159;27;20019;-56
2021/10/13 12:36:29;;;;;;;4.72;1.10;;;20.70;53.00;;;;;;5125757;27;20560;-59
2021/10/13 12:38:57;;;;;;;5.10;1.30;;;20.60;53.10;;;;;;5127609;27;20390;-55
2021/10/13 12:41:30;;;;;;;3.00;1.10;;;20.60;53.10;;;;;;5125354;27;20019;-56
2021/10/13 12:43:57;;;;;;;3.47;1.25;;;20.60;53.10;;;;;;5098305;27;20169;-58
2021/10/13 12:46:28;;;;;;;3.05;1.15;;;20.60;53.10;;;;;;5118134;27;20057;-55
2021/10/13 12:49:10;;;;;;;5.68;1.80;;;20.60;53.10;;;;;;5115075;27;20019;-58
2021/10/13 12:51:58;;;;;;;4.20;1.50;;;20.60;53.20;;;;;;5113199;27;20030;-59
2021/10/13 12:54:25;;;;;;;3.97;1.48;;;20.50;53.20;;;;;;5087433;27;20047;-56
2021/10/13 12:56:50;;;;;;;2.47;1.20;;;20.50;53.20;;;;;;5108111;27;20035;-57